sensor_id;sensor_type;location;lat;lon;timestamp;temperature;humidity
54429;DHT22;40337;52.978;6.310;2022-12-24T00:02:11;7.60;99.90
54429;DHT22;40337;52.978;6.310;2022-12-24T00:04:37;7.60;99.90
54429;DHT22;40337;52.978;6.310;2022-12-24T00:07:03;7.60;99.90
54429;DHT22;40337;52.978;6.310;2022-12-24T00:09:28;7.60;99.90
54429;DHT22;40337;52.978;6.310;2022-12-24T00:11:54;7.60;99.90
54429;DHT22;40337;52.978;6.310;2022-12-24T00:14:19;7.60;99.90
54429;DHT22;40337;52.978;6.310;2022-12-24T00:16:45;7.60;99.90
54429;DHT22;40337;52.978;6.310;2022-12-24T00:19:11;7.60;99.90
54429;DHT22;40337;52.978;6.310;2022-12-24T00:21:37;7.60;99.90
54429;DHT22;40337;52.978;6.310;2022-12-24T00:24:03;7.60;99.90
54429;DHT22;40337;52.978;6.310;2022-12-24T00:26:33;7.60;99.90
54429;DHT22;40337;52.978;6.310;2022-12-24T00:28:59;7.60;99.90
54429;DHT22;40337;52.978;6.310;2022-12-24T00:31:24;7.60;99.90
54429;DHT22;40337;52.978;6.310;2022-12-24T00:33:50;7.60;99.90
54429;DHT22;40337;52.978;6.310;2022-12-24T00:36:16;7.60;99.90
54429;DHT22;40337;52.978;6.310;2022-12-24T00:38:42;7.60;99.90
54429;DHT22;40337;52.978;6.310;2022-12-24T00:41:10;7.60;99.90
54429;DHT22;40337;52.978;6.310;2022-12-24T00:43:57;7.60;99.90
54429;DHT22;40337;52.978;6.310;2022-12-24T00:46:24;7.60;99.90
54429;DHT22;40337;52.978;6.310;2022-12-24T00:48:50;7.60;99.90
54429;DHT22;40337;52.978;6.310;2022-12-24T00:51:16;7.60;99.90
54429;DHT22;40337;52.978;6.310;2022-12-24T00:53:42;7.60;99.90
54429;DHT22;40337;52.978;6.310;2022-12-24T00:56:08;7.60;99.90
54429;DHT22;40337;52.978;6.310;2022-12-24T00:58:33;7.60;99.90
54429;DHT22;40337;52.978;6.310;2022-12-24T01:00:59;7.60;99.90
54429;DHT22;40337;52.978;6.310;2022-12-24T01:03:25;7.60;99.90
54429;DHT22;40337;52.978;6.310;2022-12-24T01:06:04;7.60;99.90
54429;DHT22;40337;52.978;6.310;2022-12-24T01:08:30;7.60;99.90
54429;DHT22;40337;52.978;6.310;2022-12-24T01:10:55;7.60;99.90
54429;DHT22;40337;52.978;6.310;2022-12-24T01:13:21;7.60;99.90
54429;DHT22;40337;52.978;6.310;2022-12-24T01:15:47;7.50;99.90
54429;DHT22;40337;52.978;6.310;2022-12-24T01:18:12;7.50;99.90
54429;DHT22;40337;52.978;6.310;2022-12-24T01:20:38;7.50;99.90
54429;DHT22;40337;52.978;6.310;2022-12-24T01:23:03;7.50;99.90
54429;DHT22;40337;52.978;6.310;2022-12-24T01:25:29;7.50;99.90
54429;DHT22;40337;52.978;6.310;2022-12-24T01:27:54;7.50;99.90
54429;DHT22;40337;52.978;6.310;2022-12-24T01:30:20;7.50;99.90
54429;DHT22;40337;52.978;6.310;2022-12-24T01:32:46;7.50;99.90
54429;DHT22;40337;52.978;6.310;2022-12-24T01:35:11;7.50;99.90
54429;DHT22;40337;52.978;6.310;2022-12-24T01:37:37;7.50;99.90
54429;DHT22;40337;52.978;6.310;2022-12-24T01:40:07;7.50;99.90
54429;DHT22;40337;52.978;6.310;2022-12-24T01:43:16;7.50;99.90
54429;DHT22;40337;52.978;6.310;2022-12-24T01:45:52;7.50;99.90
54429;DHT22;40337;52.978;6.310;2022-12-24T01:48:31;7.50;99.90
54429;DHT22;40337;52.978;6.310;2022-12-24T01:53:48;7.50;99.90
54429;DHT22;40337;52.978;6.310;2022-12-24T01:56:15;7.50;99.90
54429;DHT22;40337;52.978;6.310;2022-12-24T01:58:44;7.50;99.90
54429;DHT22;40337;52.978;6.310;2022-12-24T02:01:11;7.60;99.90
54429;DHT22;40337;52.978;6.310;2022-12-24T02:03:36;7.70;99.90
54429;DHT22;40337;52.978;6.310;2022-12-24T02:06:03;7.70;99.90
54429;DHT22;40337;52.978;6.310;2022-12-24T02:08:29;7.80;99.90
54429;DHT22;40337;52.978;6.310;2022-12-24T02:11:17;7.80;99.90
54429;DHT22;40337;52.978;6.310;2022-12-24T02:13:47;7.80;99.90
54429;DHT22;40337;52.978;6.310;2022-12-24T02:19:30;7.90;99.90
54429;DHT22;40337;52.978;6.310;2022-12-24T02:22:06;8.00;99.90
54429;DHT22;40337;52.978;6.310;2022-12-24T02:25:16;8.00;99.90
54429;DHT22;40337;52.978;6.310;2022-12-24T02:30:33;8.20;99.90
54429;DHT22;40337;52.978;6.310;2022-12-24T02:33:14;8.20;99.90
54429;DHT22;40337;52.978;6.310;2022-12-24T02:36:00;8.20;99.90
54429;DHT22;40337;52.978;6.310;2022-12-24T02:38:47;8.20;99.90
54429;DHT22;40337;52.978;6.310;2022-12-24T02:41:18;8.30;99.90
54429;DHT22;40337;52.978;6.310;2022-12-24T02:43:48;8.30;99.90
54429;DHT22;40337;52.978;6.310;2022-12-24T02:46:19;8.30;99.90
54429;DHT22;40337;52.978;6.310;2022-12-24T02:48:47;8.30;99.90
54429;DHT22;40337;52.978;6.310;2022-12-24T02:51:14;8.30;99.90
54429;DHT22;40337;52.978;6.310;2022-12-24T02:53:40;8.30;99.90
54429;DHT22;40337;52.978;6.310;2022-12-24T02:56:16;8.30;99.90
54429;DHT22;40337;52.978;6.310;2022-12-24T03:05:34;8.40;99.90
54429;DHT22;40337;52.978;6.310;2022-12-24T03:08:13;8.40;99.90
54429;DHT22;40337;52.978;6.310;2022-12-24T03:11:01;8.40;99.90
54429;DHT22;40337;52.978;6.310;2022-12-24T03:13:29;8.40;99.90
54429;DHT22;40337;52.978;6.310;2022-12-24T03:15:55;8.40;99.90
54429;DHT22;40337;52.978;6.310;2022-12-24T03:18:23;8.40;99.90
54429;DHT22;40337;52.978;6.310;2022-12-24T03:21:01;8.40;99.90
54429;DHT22;40337;52.978;6.310;2022-12-24T03:23:29;8.40;99.90
54429;DHT22;40337;52.978;6.310;2022-12-24T03:25:55;8.40;99.90
54429;DHT22;40337;52.978;6.310;2022-12-24T03:28:24;8.40;99.90
54429;DHT22;40337;52.978;6.310;2022-12-24T03:30:51;8.40;99.90
54429;DHT22;40337;52.978;6.310;2022-12-24T03:33:17;8.50;99.90
54429;DHT22;40337;52.978;6.310;2022-12-24T03:35:43;8.50;99.90
54429;DHT22;40337;52.978;6.310;2022-12-24T03:38:09;8.50;99.90
54429;DHT22;40337;52.978;6.310;2022-12-24T03:40:35;8.50;99.90
54429;DHT22;40337;52.978;6.310;2022-12-24T03:43:00;8.50;99.90
54429;DHT22;40337;52.978;6.310;2022-12-24T03:45:26;8.50;99.90
54429;DHT22;40337;52.978;6.310;2022-12-24T03:47:51;8.50;99.90
54429;DHT22;40337;52.978;6.310;2022-12-24T03:50:17;8.50;99.90
54429;DHT22;40337;52.978;6.310;2022-12-24T03:52:43;8.50;99.90
54429;DHT22;40337;52.978;6.310;2022-12-24T03:55:08;8.50;99.90
54429;DHT22;40337;52.978;6.310;2022-12-24T03:57:34;8.50;99.90
54429;DHT22;40337;52.978;6.310;2022-12-24T03:59:59;8.50;99.90
54429;DHT22;40337;52.978;6.310;2022-12-24T04:02:25;8.60;99.90
54429;DHT22;40337;52.978;6.310;2022-12-24T04:04:51;8.60;99.90
54429;DHT22;40337;52.978;6.310;2022-12-24T04:07:16;8.60;99.90
54429;DHT22;40337;52.978;6.310;2022-12-24T04:09:42;8.60;99.90
54429;DHT22;40337;52.978;6.310;2022-12-24T04:12:07;8.60;99.90
54429;DHT22;40337;52.978;6.310;2022-12-24T04:14:33;8.60;99.90
54429;DHT22;40337;52.978;6.310;2022-12-24T04:16:58;8.60;99.90
54429;DHT22;40337;52.978;6.310;2022-12-24T04:19:24;8.60;99.90
54429;DHT22;40337;52.978;6.310;2022-12-24T04:21:50;8.60;99.90
54429;DHT22;40337;52.978;6.310;2022-12-24T04:24:15;8.50;99.90
54429;DHT22;40337;52.978;6.310;2022-12-24T04:26:41;8.50;99.90
54429;DHT22;40337;52.978;6.310;2022-12-24T04:29:06;8.50;99.90
54429;DHT22;40337;52.978;6.310;2022-12-24T04:31:32;8.40;99.90
54429;DHT22;40337;52.978;6.310;2022-12-24T04:33:57;8.40;99.90
54429;DHT22;40337;52.978;6.310;2022-12-24T04:36:23;8.40;99.90
54429;DHT22;40337;52.978;6.310;2022-12-24T04:38:49;8.40;99.90
54429;DHT22;40337;52.978;6.310;2022-12-24T04:41:17;8.40;99.90
54429;DHT22;40337;52.978;6.310;2022-12-24T04:43:43;8.40;99.90
54429;DHT22;40337;52.978;6.310;2022-12-24T04:46:15;8.30;99.90
54429;DHT22;40337;52.978;6.310;2022-12-24T04:48:43;8.30;99.90
54429;DHT22;40337;52.978;6.310;2022-12-24T04:51:10;8.30;99.90
54429;DHT22;40337;52.978;6.310;2022-12-24T04:53:36;8.40;99.90
54429;DHT22;40337;52.978;6.310;2022-12-24T04:56:02;8.40;99.90
54429;DHT22;40337;52.978;6.310;2022-12-24T04:58:28;8.40;99.90
54429;DHT22;40337;52.978;6.310;2022-12-24T05:00:54;8.40;99.90
54429;DHT22;40337;52.978;6.310;2022-12-24T05:03:19;8.40;99.90
54429;DHT22;40337;52.978;6.310;2022-12-24T05:05:45;8.50;99.90
54429;DHT22;40337;52.978;6.310;2022-12-24T05:08:12;8.40;99.90
54429;DHT22;40337;52.978;6.310;2022-12-24T05:10:37;8.40;99.90
54429;DHT22;40337;52.978;6.310;2022-12-24T05:13:03;8.40;99.90
54429;DHT22;40337;52.978;6.310;2022-12-24T05:15:29;8.30;99.90
54429;DHT22;40337;52.978;6.310;2022-12-24T05:17:54;8.30;99.90
54429;DHT22;40337;52.978;6.310;2022-12-24T05:20:20;8.30;99.90
54429;DHT22;40337;52.978;6.310;2022-12-24T05:22:45;8.30;99.90
54429;DHT22;40337;52.978;6.310;2022-12-24T05:25:37;8.30;99.90
54429;DHT22;40337;52.978;6.310;2022-12-24T05:28:22;8.30;99.90
54429;DHT22;40337;52.978;6.310;2022-12-24T05:30:47;8.30;99.90
54429;DHT22;40337;52.978;6.310;2022-12-24T05:33:13;8.30;99.90
54429;DHT22;40337;52.978;6.310;2022-12-24T05:35:38;8.30;99.90
54429;DHT22;40337;52.978;6.310;2022-12-24T05:38:04;8.40;99.90
54429;DHT22;40337;52.978;6.310;2022-12-24T05:40:30;8.40;99.90
54429;DHT22;40337;52.978;6.310;2022-12-24T05:42:55;8.40;99.90
54429;DHT22;40337;52.978;6.310;2022-12-24T05:45:21;8.50;99.90
54429;DHT22;40337;52.978;6.310;2022-12-24T05:47:46;8.50;99.90
54429;DHT22;40337;52.978;6.310;2022-12-24T05:50:12;8.50;99.90
54429;DHT22;40337;52.978;6.310;2022-12-24T05:52:37;8.50;99.90
54429;DHT22;40337;52.978;6.310;2022-12-24T05:55:03;8.60;99.90
54429;DHT22;40337;52.978;6.310;2022-12-24T05:57:29;8.50;99.90
54429;DHT22;40337;52.978;6.310;2022-12-24T05:59:54;8.50;99.90
54429;DHT22;40337;52.978;6.310;2022-12-24T06:02:20;8.50;99.90
54429;DHT22;40337;52.978;6.310;2022-12-24T06:04:45;8.50;99.90
54429;DHT22;40337;52.978;6.310;2022-12-24T06:07:11;8.50;99.90
54429;DHT22;40337;52.978;6.310;2022-12-24T06:09:36;8.50;99.90
54429;DHT22;40337;52.978;6.310;2022-12-24T06:12:02;8.50;99.90
54429;DHT22;40337;52.978;6.310;2022-12-24T06:14:28;8.40;99.90
54429;DHT22;40337;52.978;6.310;2022-12-24T06:16:53;8.40;99.90
54429;DHT22;40337;52.978;6.310;2022-12-24T06:19:19;8.40;99.90
54429;DHT22;40337;52.978;6.310;2022-12-24T06:21:44;8.40;99.90
54429;DHT22;40337;52.978;6.310;2022-12-24T06:24:10;8.40;99.90
54429;DHT22;40337;52.978;6.310;2022-12-24T06:26:35;8.40;99.90
54429;DHT22;40337;52.978;6.310;2022-12-24T06:29:02;8.40;99.90
54429;DHT22;40337;52.978;6.310;2022-12-24T06:31:28;8.50;99.90
54429;DHT22;40337;52.978;6.310;2022-12-24T06:33:53;8.40;99.90
54429;DHT22;40337;52.978;6.310;2022-12-24T06:36:21;8.40;99.90
54429;DHT22;40337;52.978;6.310;2022-12-24T06:38:47;8.40;99.90
54429;DHT22;40337;52.978;6.310;2022-12-24T06:41:14;8.40;99.90
54429;DHT22;40337;52.978;6.310;2022-12-24T06:43:47;8.40;99.90
54429;DHT22;40337;52.978;6.310;2022-12-24T06:46:14;8.40;99.90
54429;DHT22;40337;52.978;6.310;2022-12-24T06:48:39;8.50;99.90
54429;DHT22;40337;52.978;6.310;2022-12-24T06:51:05;8.40;99.90
54429;DHT22;40337;52.978;6.310;2022-12-24T06:53:32;8.40;99.90
54429;DHT22;40337;52.978;6.310;2022-12-24T06:56:05;8.50;99.90
54429;DHT22;40337;52.978;6.310;2022-12-24T06:58:31;8.50;99.90
54429;DHT22;40337;52.978;6.310;2022-12-24T07:00:59;8.50;99.90
54429;DHT22;40337;52.978;6.310;2022-12-24T07:03:25;8.50;99.90
54429;DHT22;40337;52.978;6.310;2022-12-24T07:05:50;8.50;99.90
54429;DHT22;40337;52.978;6.310;2022-12-24T07:08:16;8.50;99.90
54429;DHT22;40337;52.978;6.310;2022-12-24T07:10:41;8.50;99.90
54429;DHT22;40337;52.978;6.310;2022-12-24T07:13:07;8.50;99.90
54429;DHT22;40337;52.978;6.310;2022-12-24T07:15:32;8.50;99.90
54429;DHT22;40337;52.978;6.310;2022-12-24T07:17:58;8.50;99.90
54429;DHT22;40337;52.978;6.310;2022-12-24T07:20:23;8.50;99.90
54429;DHT22;40337;52.978;6.310;2022-12-24T07:22:49;8.50;99.90
54429;DHT22;40337;52.978;6.310;2022-12-24T07:25:14;8.50;99.90
54429;DHT22;40337;52.978;6.310;2022-12-24T07:27:40;8.50;99.90
54429;DHT22;40337;52.978;6.310;2022-12-24T07:30:06;8.50;99.90
54429;DHT22;40337;52.978;6.310;2022-12-24T07:32:32;8.60;99.90
54429;DHT22;40337;52.978;6.310;2022-12-24T07:34:57;8.60;99.90
54429;DHT22;40337;52.978;6.310;2022-12-24T07:37:23;8.60;99.90
54429;DHT22;40337;52.978;6.310;2022-12-24T07:39:49;8.70;99.90
54429;DHT22;40337;52.978;6.310;2022-12-24T07:42:14;8.70;99.90
54429;DHT22;40337;52.978;6.310;2022-12-24T07:44:40;8.70;99.90
54429;DHT22;40337;52.978;6.310;2022-12-24T07:47:05;8.70;99.90
54429;DHT22;40337;52.978;6.310;2022-12-24T07:49:31;8.70;99.90
54429;DHT22;40337;52.978;6.310;2022-12-24T07:51:56;8.70;99.90
54429;DHT22;40337;52.978;6.310;2022-12-24T07:54:22;8.60;99.90
54429;DHT22;40337;52.978;6.310;2022-12-24T07:56:48;8.60;99.90
54429;DHT22;40337;52.978;6.310;2022-12-24T07:59:13;8.60;99.90
54429;DHT22;40337;52.978;6.310;2022-12-24T08:01:39;8.60;99.90
54429;DHT22;40337;52.978;6.310;2022-12-24T08:04:05;8.60;99.90
54429;DHT22;40337;52.978;6.310;2022-12-24T08:06:30;8.50;99.90
54429;DHT22;40337;52.978;6.310;2022-12-24T08:08:56;8.50;99.90
54429;DHT22;40337;52.978;6.310;2022-12-24T08:11:22;8.50;99.90
54429;DHT22;40337;52.978;6.310;2022-12-24T08:13:47;8.50;99.90
54429;DHT22;40337;52.978;6.310;2022-12-24T08:16:13;8.50;99.90
54429;DHT22;40337;52.978;6.310;2022-12-24T08:18:38;8.50;99.90
54429;DHT22;40337;52.978;6.310;2022-12-24T08:21:07;8.50;99.90
54429;DHT22;40337;52.978;6.310;2022-12-24T08:23:33;8.60;99.90
54429;DHT22;40337;52.978;6.310;2022-12-24T08:25:59;8.60;99.90
54429;DHT22;40337;52.978;6.310;2022-12-24T08:28:24;8.60;99.90
54429;DHT22;40337;52.978;6.310;2022-12-24T08:30:50;8.60;99.90
54429;DHT22;40337;52.978;6.310;2022-12-24T08:33:16;8.60;99.90
54429;DHT22;40337;52.978;6.310;2022-12-24T08:35:50;8.60;99.90
54429;DHT22;40337;52.978;6.310;2022-12-24T08:38:17;8.70;99.90
54429;DHT22;40337;52.978;6.310;2022-12-24T08:40:43;8.70;99.90
54429;DHT22;40337;52.978;6.310;2022-12-24T08:43:08;8.70;99.90
54429;DHT22;40337;52.978;6.310;2022-12-24T08:45:35;8.70;99.90
54429;DHT22;40337;52.978;6.310;2022-12-24T08:48:02;8.80;99.90
54429;DHT22;40337;52.978;6.310;2022-12-24T08:50:28;8.80;99.90
54429;DHT22;40337;52.978;6.310;2022-12-24T08:52:53;8.80;99.90
54429;DHT22;40337;52.978;6.310;2022-12-24T08:55:19;8.80;99.90
54429;DHT22;40337;52.978;6.310;2022-12-24T08:57:44;8.90;99.90
54429;DHT22;40337;52.978;6.310;2022-12-24T09:00:11;8.90;99.90
54429;DHT22;40337;52.978;6.310;2022-12-24T09:02:37;9.00;99.90
54429;DHT22;40337;52.978;6.310;2022-12-24T09:05:03;9.00;99.90
54429;DHT22;40337;52.978;6.310;2022-12-24T09:07:29;9.10;99.90
54429;DHT22;40337;52.978;6.310;2022-12-24T09:09:55;9.20;99.90
54429;DHT22;40337;52.978;6.310;2022-12-24T09:12:20;9.20;99.90
54429;DHT22;40337;52.978;6.310;2022-12-24T09:14:46;9.30;99.90
54429;DHT22;40337;52.978;6.310;2022-12-24T09:17:12;9.40;99.90
54429;DHT22;40337;52.978;6.310;2022-12-24T09:19:37;9.30;99.90
54429;DHT22;40337;52.978;6.310;2022-12-24T09:22:03;9.40;99.90
54429;DHT22;40337;52.978;6.310;2022-12-24T09:24:29;9.30;99.90
54429;DHT22;40337;52.978;6.310;2022-12-24T09:26:54;9.30;99.90
54429;DHT22;40337;52.978;6.310;2022-12-24T09:29:20;9.30;99.90
54429;DHT22;40337;52.978;6.310;2022-12-24T09:31:45;9.20;99.90
54429;DHT22;40337;52.978;6.310;2022-12-24T09:34:11;9.20;99.90
54429;DHT22;40337;52.978;6.310;2022-12-24T09:36:36;9.20;99.90
54429;DHT22;40337;52.978;6.310;2022-12-24T09:39:02;9.20;99.90
54429;DHT22;40337;52.978;6.310;2022-12-24T09:44:33;9.20;99.90
54429;DHT22;40337;52.978;6.310;2022-12-24T09:47:26;9.10;99.90
54429;DHT22;40337;52.978;6.310;2022-12-24T09:49:56;9.10;99.90
54429;DHT22;40337;52.978;6.310;2022-12-24T09:52:36;9.10;99.90
54429;DHT22;40337;52.978;6.310;2022-12-24T09:55:19;9.10;99.90
54429;DHT22;40337;52.978;6.310;2022-12-24T09:57:49;9.10;99.90
54429;DHT22;40337;52.978;6.310;2022-12-24T10:00:20;9.10;99.90
54429;DHT22;40337;52.978;6.310;2022-12-24T10:02:47;9.10;99.90
54429;DHT22;40337;52.978;6.310;2022-12-24T10:05:17;9.20;99.90
54429;DHT22;40337;52.978;6.310;2022-12-24T10:07:57;9.30;99.90
54429;DHT22;40337;52.978;6.310;2022-12-24T10:15:36;9.40;99.90
54429;DHT22;40337;52.978;6.310;2022-12-24T10:18:09;9.40;99.90
54429;DHT22;40337;52.978;6.310;2022-12-24T10:21:12;9.40;99.90
54429;DHT22;40337;52.978;6.310;2022-12-24T10:23:45;9.50;99.90
54429;DHT22;40337;52.978;6.310;2022-12-24T10:26:26;9.50;99.90
54429;DHT22;40337;52.978;6.310;2022-12-24T10:29:16;9.50;99.90
54429;DHT22;40337;52.978;6.310;2022-12-24T10:34:43;9.50;99.90
54429;DHT22;40337;52.978;6.310;2022-12-24T10:37:16;9.50;99.90
54429;DHT22;40337;52.978;6.310;2022-12-24T10:39:42;9.50;99.90
54429;DHT22;40337;52.978;6.310;2022-12-24T10:42:08;9.50;99.90
54429;DHT22;40337;52.978;6.310;2022-12-24T10:44:35;9.50;99.90
54429;DHT22;40337;52.978;6.310;2022-12-24T10:47:01;9.50;99.90
54429;DHT22;40337;52.978;6.310;2022-12-24T10:49:44;9.50;99.90
54429;DHT22;40337;52.978;6.310;2022-12-24T10:52:14;9.50;99.90
54429;DHT22;40337;52.978;6.310;2022-12-24T10:57:31;9.60;99.90
54429;DHT22;40337;52.978;6.310;2022-12-24T10:59:57;9.60;99.90
54429;DHT22;40337;52.978;6.310;2022-12-24T11:02:43;9.60;99.90
54429;DHT22;40337;52.978;6.310;2022-12-24T11:05:30;9.60;99.90
54429;DHT22;40337;52.978;6.310;2022-12-24T11:11:00;9.60;99.90
54429;DHT22;40337;52.978;6.310;2022-12-24T11:13:58;9.60;99.90
54429;DHT22;40337;52.978;6.310;2022-12-24T11:16:24;9.60;99.90
54429;DHT22;40337;52.978;6.310;2022-12-24T11:18:55;9.60;99.90
54429;DHT22;40337;52.978;6.310;2022-12-24T11:21:47;9.60;99.90
54429;DHT22;40337;52.978;6.310;2022-12-24T11:26:39;9.60;99.90
54429;DHT22;40337;52.978;6.310;2022-12-24T11:29:23;9.60;99.90
54429;DHT22;40337;52.978;6.310;2022-12-24T11:31:50;9.60;99.90
54429;DHT22;40337;52.978;6.310;2022-12-24T11:34:18;9.60;99.90
54429;DHT22;40337;52.978;6.310;2022-12-24T11:36:46;9.60;99.90
54429;DHT22;40337;52.978;6.310;2022-12-24T11:39:24;9.60;99.90
54429;DHT22;40337;52.978;6.310;2022-12-24T11:41:52;9.70;99.90
54429;DHT22;40337;52.978;6.310;2022-12-24T11:44:27;9.70;99.90
54429;DHT22;40337;52.978;6.310;2022-12-24T11:46:54;9.70;99.90
54429;DHT22;40337;52.978;6.310;2022-12-24T11:49:26;9.70;99.90
54429;DHT22;40337;52.978;6.310;2022-12-24T11:52:03;9.70;99.90
54429;DHT22;40337;52.978;6.310;2022-12-24T11:55:15;9.70;99.90
54429;DHT22;40337;52.978;6.310;2022-12-24T11:58:03;9.70;99.90
54429;DHT22;40337;52.978;6.310;2022-12-24T12:00:29;9.60;99.90
54429;DHT22;40337;52.978;6.310;2022-12-24T12:02:57;9.60;99.90
54429;DHT22;40337;52.978;6.310;2022-12-24T12:05:27;9.60;99.90
54429;DHT22;40337;52.978;6.310;2022-12-24T12:08:01;9.60;99.90
54429;DHT22;40337;52.978;6.310;2022-12-24T12:10:31;9.60;99.90
54429;DHT22;40337;52.978;6.310;2022-12-24T12:13:14;9.60;99.90
54429;DHT22;40337;52.978;6.310;2022-12-24T12:15:52;9.60;99.90
54429;DHT22;40337;52.978;6.310;2022-12-24T12:18:35;9.60;99.90
54429;DHT22;40337;52.978;6.310;2022-12-24T12:21:05;9.60;99.90
54429;DHT22;40337;52.978;6.310;2022-12-24T12:23:36;9.60;99.90
54429;DHT22;40337;52.978;6.310;2022-12-24T12:26:10;9.70;99.90
54429;DHT22;40337;52.978;6.310;2022-12-24T12:28:49;9.70;99.90
54429;DHT22;40337;52.978;6.310;2022-12-24T12:31:32;9.70;99.90
54429;DHT22;40337;52.978;6.310;2022-12-24T12:34:03;9.70;99.90
54429;DHT22;40337;52.978;6.310;2022-12-24T12:36:38;9.70;99.90
54429;DHT22;40337;52.978;6.310;2022-12-24T12:39:08;9.80;99.90
54429;DHT22;40337;52.978;6.310;2022-12-24T12:42:01;9.80;99.90
54429;DHT22;40337;52.978;6.310;2022-12-24T12:47:38;9.70;99.90
54429;DHT22;40337;52.978;6.310;2022-12-24T12:50:16;9.80;99.90
54429;DHT22;40337;52.978;6.310;2022-12-24T12:58:48;9.70;99.90
54429;DHT22;40337;52.978;6.310;2022-12-24T13:01:23;9.70;99.90
54429;DHT22;40337;52.978;6.310;2022-12-24T13:20:20;9.70;99.90
54429;DHT22;40337;52.978;6.310;2022-12-24T13:25:44;9.70;99.90
54429;DHT22;40337;52.978;6.310;2022-12-24T13:31:35;9.70;99.90
54429;DHT22;40337;52.978;6.310;2022-12-24T13:36:20;9.70;99.90
54429;DHT22;40337;52.978;6.310;2022-12-24T13:38:52;9.70;99.90
54429;DHT22;40337;52.978;6.310;2022-12-24T13:46:50;9.60;99.90
54429;DHT22;40337;52.978;6.310;2022-12-24T13:49:19;9.60;99.90
54429;DHT22;40337;52.978;6.310;2022-12-24T13:51:46;9.60;99.90
54429;DHT22;40337;52.978;6.310;2022-12-24T13:54:13;9.60;99.90
54429;DHT22;40337;52.978;6.310;2022-12-24T13:56:41;9.50;99.90
54429;DHT22;40337;52.978;6.310;2022-12-24T13:59:36;9.50;99.90
54429;DHT22;40337;52.978;6.310;2022-12-24T14:02:03;9.50;99.90
54429;DHT22;40337;52.978;6.310;2022-12-24T14:04:33;9.40;99.90
54429;DHT22;40337;52.978;6.310;2022-12-24T14:07:02;9.40;99.90
54429;DHT22;40337;52.978;6.310;2022-12-24T14:09:30;9.40;99.90
54429;DHT22;40337;52.978;6.310;2022-12-24T14:14:37;9.40;99.90
54429;DHT22;40337;52.978;6.310;2022-12-24T14:17:20;9.40;99.90
54429;DHT22;40337;52.978;6.310;2022-12-24T14:19:58;9.50;99.90
54429;DHT22;40337;52.978;6.310;2022-12-24T14:22:37;9.40;99.90
54429;DHT22;40337;52.978;6.310;2022-12-24T14:25:21;9.40;99.90
54429;DHT22;40337;52.978;6.310;2022-12-24T14:27:56;9.40;99.90
54429;DHT22;40337;52.978;6.310;2022-12-24T14:30:27;9.40;99.90
54429;DHT22;40337;52.978;6.310;2022-12-24T14:32:53;9.30;99.90
54429;DHT22;40337;52.978;6.310;2022-12-24T14:35:25;9.30;99.90
54429;DHT22;40337;52.978;6.310;2022-12-24T14:38:07;9.30;99.90
54429;DHT22;40337;52.978;6.310;2022-12-24T14:40:48;9.30;99.90
54429;DHT22;40337;52.978;6.310;2022-12-24T14:43:38;9.20;99.90
54429;DHT22;40337;52.978;6.310;2022-12-24T14:46:23;9.20;99.90
54429;DHT22;40337;52.978;6.310;2022-12-24T14:54:40;9.10;99.90
54429;DHT22;40337;52.978;6.310;2022-12-24T14:59:54;9.10;99.90
54429;DHT22;40337;52.978;6.310;2022-12-24T15:02:44;9.10;99.90
54429;DHT22;40337;52.978;6.310;2022-12-24T15:05:12;9.10;99.90
54429;DHT22;40337;52.978;6.310;2022-12-24T15:07:42;9.00;99.90
54429;DHT22;40337;52.978;6.310;2022-12-24T15:10:21;9.00;99.90
54429;DHT22;40337;52.978;6.310;2022-12-24T15:12:49;9.00;99.90
54429;DHT22;40337;52.978;6.310;2022-12-24T15:15:18;8.90;99.90
54429;DHT22;40337;52.978;6.310;2022-12-24T15:17:44;8.90;99.90
54429;DHT22;40337;52.978;6.310;2022-12-24T15:20:20;8.90;99.90
54429;DHT22;40337;52.978;6.310;2022-12-24T15:22:49;8.80;99.90
54429;DHT22;40337;52.978;6.310;2022-12-24T15:25:28;8.80;99.90
54429;DHT22;40337;52.978;6.310;2022-12-24T15:27:54;8.70;99.90
54429;DHT22;40337;52.978;6.310;2022-12-24T15:30:25;8.60;99.90
54429;DHT22;40337;52.978;6.310;2022-12-24T15:32:56;8.60;99.90
54429;DHT22;40337;52.978;6.310;2022-12-24T15:35:52;8.50;99.90
54429;DHT22;40337;52.978;6.310;2022-12-24T15:38:25;8.40;99.90
54429;DHT22;40337;52.978;6.310;2022-12-24T15:40:54;8.40;99.90
54429;DHT22;40337;52.978;6.310;2022-12-24T15:43:21;8.30;99.90
54429;DHT22;40337;52.978;6.310;2022-12-24T15:45:47;8.20;99.90
54429;DHT22;40337;52.978;6.310;2022-12-24T15:48:20;8.20;99.90
54429;DHT22;40337;52.978;6.310;2022-12-24T15:50:49;8.20;99.90
54429;DHT22;40337;52.978;6.310;2022-12-24T15:53:21;8.10;99.90
54429;DHT22;40337;52.978;6.310;2022-12-24T15:56:09;8.20;99.90
54429;DHT22;40337;52.978;6.310;2022-12-24T15:58:41;8.20;99.90
54429;DHT22;40337;52.978;6.310;2022-12-24T16:06:13;8.20;99.90
54429;DHT22;40337;52.978;6.310;2022-12-24T16:08:40;8.20;99.90
54429;DHT22;40337;52.978;6.310;2022-12-24T16:11:15;8.20;99.90
54429;DHT22;40337;52.978;6.310;2022-12-24T16:16:17;8.10;99.90
54429;DHT22;40337;52.978;6.310;2022-12-24T16:18:57;8.10;99.90
54429;DHT22;40337;52.978;6.310;2022-12-24T16:21:38;8.00;99.90
54429;DHT22;40337;52.978;6.310;2022-12-24T16:24:23;8.00;99.90
54429;DHT22;40337;52.978;6.310;2022-12-24T16:26:50;8.00;99.90
54429;DHT22;40337;52.978;6.310;2022-12-24T16:29:16;7.90;99.90
54429;DHT22;40337;52.978;6.310;2022-12-24T16:31:56;7.90;99.90
54429;DHT22;40337;52.978;6.310;2022-12-24T16:34:28;7.80;99.90
54429;DHT22;40337;52.978;6.310;2022-12-24T16:36:54;7.70;99.90
54429;DHT22;40337;52.978;6.310;2022-12-24T16:39:26;7.60;99.90
54429;DHT22;40337;52.978;6.310;2022-12-24T16:41:57;7.60;99.90
54429;DHT22;40337;52.978;6.310;2022-12-24T16:44:42;7.60;99.90
54429;DHT22;40337;52.978;6.310;2022-12-24T16:47:16;7.60;99.90
54429;DHT22;40337;52.978;6.310;2022-12-24T16:49:42;7.60;99.90
54429;DHT22;40337;52.978;6.310;2022-12-24T16:52:18;7.90;99.90
54429;DHT22;40337;52.978;6.310;2022-12-24T16:54:49;7.50;99.90
54429;DHT22;40337;52.978;6.310;2022-12-24T16:57:15;7.40;99.90
54429;DHT22;40337;52.978;6.310;2022-12-24T16:59:41;7.30;99.90
54429;DHT22;40337;52.978;6.310;2022-12-24T17:02:12;7.40;99.90
54429;DHT22;40337;52.978;6.310;2022-12-24T17:04:38;7.20;99.90
54429;DHT22;40337;52.978;6.310;2022-12-24T17:07:05;7.50;99.90
54429;DHT22;40337;52.978;6.310;2022-12-24T17:09:30;7.50;99.90
54429;DHT22;40337;52.978;6.310;2022-12-24T17:11:59;7.20;99.90
54429;DHT22;40337;52.978;6.310;2022-12-24T17:14:25;7.50;99.90
54429;DHT22;40337;52.978;6.310;2022-12-24T17:16:50;7.00;99.90
54429;DHT22;40337;52.978;6.310;2022-12-24T17:19:16;7.30;99.90
54429;DHT22;40337;52.978;6.310;2022-12-24T17:21:43;7.00;99.90
54429;DHT22;40337;52.978;6.310;2022-12-24T17:24:08;7.10;99.90
54429;DHT22;40337;52.978;6.310;2022-12-24T17:26:35;7.40;99.90
54429;DHT22;40337;52.978;6.310;2022-12-24T17:29:01;7.00;99.90
54429;DHT22;40337;52.978;6.310;2022-12-24T17:31:30;7.00;99.90
54429;DHT22;40337;52.978;6.310;2022-12-24T17:33:57;6.90;99.90
54429;DHT22;40337;52.978;6.310;2022-12-24T17:36:26;8.00;99.90